Time;durP1;ratioP1;P1;durP2;ratioP2;P2;SDS_P1;SDS_P2;PMS_P1;PMS_P2;Temp;Humidity;BMP_temperature;BMP_pressure;BME280_temperature;BME280_humidity;BME280_pressure;Samples;Min_cycle;Max_cycle;Signal;HPM_P1;HPM_P2
2022/06/11 00:00:58;;;;;;;8.73;4.57;;;;;;;17.24;78.29;101987.72;5030117;28;20029;-74
2022/06/11 00:03:24;;;;;;;9.35;5.10;;;;;;;17.19;78.46;101984.50;5028814;28;20041;-74
2022/06/11 00:05:49;;;;;;;9.50;4.85;;;;;;;17.18;78.44;101982.78;5027946;28;20037;-74
2022/06/11 00:08:16;;;;;;;9.18;4.10;;;;;;;17.13;78.48;101976.88;5012114;28;20038;-74
2022/06/11 00:10:42;;;;;;;7.68;4.78;;;;;;;17.15;78.74;101980.34;5030485;28;20032;-74
2022/06/11 00:13:09;;;;;;;6.43;4.10;;;;;;;17.21;78.45;101988.81;5028595;28;20317;-74
2022/06/11 00:15:36;;;;;;;7.75;4.75;;;;;;;17.17;78.40;101991.81;5031506;28;20018;-74
2022/06/11 00:18:03;;;;;;;8.13;4.65;;;;;;;17.18;78.22;101998.94;5031226;28;20102;-73
2022/06/11 00:20:31;;;;;;;9.05;4.40;;;;;;;17.20;77.98;101986.22;5014373;28;20041;-74
2022/06/11 00:22:56;;;;;;;11.45;4.70;;;;;;;17.10;78.19;101988.72;5030692;28;20546;-74
2022/06/11 00:25:24;;;;;;;7.07;4.45;;;;;;;17.08;78.71;101987.97;5010698;28;20033;-73
2022/06/11 00:27:52;;;;;;;7.85;4.75;;;;;;;17.00;78.89;101991.22;5028877;28;20159;-74
2022/06/11 00:30:19;;;;;;;7.15;4.40;;;;;;;16.94;78.78;101990.78;5030305;28;20052;-73
2022/06/11 00:32:46;;;;;;;5.10;4.07;;;;;;;16.95;78.98;101992.53;5029372;28;20602;-73
2022/06/11 00:35:13;;;;;;;8.23;4.88;;;;;;;16.97;78.79;101988.75;5012736;28;20026;-73
2022/06/11 00:37:39;;;;;;;10.00;4.80;;;;;;;16.84;79.30;101990.59;5014497;28;20033;-73
2022/06/11 00:40:07;;;;;;;7.03;4.15;;;;;;;16.80;79.39;101989.94;5031238;28;20021;-73
2022/06/11 00:42:34;;;;;;;8.63;4.50;;;;;;;16.76;79.47;101988.44;5029437;28;20031;-73
2022/06/11 00:45:18;;;;;;;10.05;4.75;;;;;;;16.90;79.06;101984.78;5031406;28;20412;-74
2022/06/11 00:47:48;;;;;;;7.95;5.03;;;;;;;16.81;79.68;101982.75;5031266;28;20033;-74
2022/06/11 00:50:19;;;;;;;;;;;;;;;17.02;77.87;101983.03;5030468;28;20606;-74
2022/06/11 00:52:45;;;;;;;10.13;4.93;;;;;;;16.83;79.51;101979.97;5013244;28;20280;-73
2022/06/11 00:55:20;;;;;;;5.43;4.82;;;;;;;16.78;79.30;101978.44;5030960;28;20052;-74
2022/06/11 00:57:51;;;;;;;9.40;5.05;;;;;;;16.70;80.03;101979.94;5028452;28;20026;-74
2022/06/11 01:00:21;;;;;;;7.85;4.85;;;;;;;16.58;80.11;101984.34;5029569;28;20025;-74
2022/06/11 01:02:48;;;;;;;8.95;4.90;;;;;;;16.66;80.00;101975.75;5029642;28;20159;-73
2022/06/11 01:05:23;;;;;;;8.98;5.30;;;;;;;16.53;80.13;101971.25;5031324;28;20021;-74
2022/06/11 01:08:00;;;;;;;6.32;4.93;;;;;;;16.61;79.97;101978.75;5030100;28;20025;-74
2022/06/11 01:10:38;;;;;;;7.20;5.03;;;;;;;16.60;80.33;101977.03;5029053;28;20033;-74
2022/06/11 01:13:09;;;;;;;10.73;5.65;;;;;;;16.52;80.42;101971.34;5028862;28;20040;-74
2022/06/11 01:15:42;;;;;;;11.43;6.22;;;;;;;16.51;80.44;101964.25;5030837;28;20100;-73
2022/06/11 01:18:43;;;;;;;7.68;5.40;;;;;;;16.57;79.95;101978.09;5011201;28;20021;-73
2022/06/11 01:21:40;;;;;;;8.90;5.68;;;;;;;16.56;80.63;101971.03;5012403;28;20374;-74
2022/06/11 01:24:33;;;;;;;8.90;6.03;;;;;;;16.54;80.81;101975.63;5008072;28;20140;-74
2022/06/11 01:27:36;;;;;;;10.02;5.90;;;;;;;16.55;80.80;101971.13;5027714;28;20025;-74
2022/06/11 01:30:25;;;;;;;9.27;6.28;;;;;;;16.59;80.51;101972.66;5011041;28;20025;-73
2022/06/11 01:33:13;;;;;;;10.88;5.88;;;;;;;16.49;80.70;101971.56;5011000;28;20495;-73
2022/06/11 01:36:09;;;;;;;10.10;5.97;;;;;;;16.47;81.38;101963.63;5027504;28;20485;-73
2022/06/11 01:38:40;;;;;;;12.13;6.43;;;;;;;16.38;81.49;101966.91;5012517;28;20080;-74
2022/06/11 01:41:23;;;;;;;8.85;5.88;;;;;;;16.43;81.49;101963.94;5030158;28;20018;-74
2022/06/11 01:43:54;;;;;;;7.80;6.05;;;;;;;16.46;81.51;101969.09;5029031;28;20025;-73
2022/06/11 01:46:33;;;;;;;7.57;6.22;;;;;;;16.51;81.22;101972.31;5011595;28;20037;-74
2022/06/11 01:49:04;;;;;;;9.65;5.70;;;;;;;16.44;81.60;101957.59;5029763;28;20029;-74
2022/06/11 01:51:57;;;;;;;8.35;5.68;;;;;;;16.43;81.51;101964.78;5029837;28;20036;-74
2022/06/11 01:54:31;;;;;;;13.18;5.72;;;;;;;16.42;81.64;101956.84;5029336;28;20108;-73
2022/06/11 01:57:12;;;;;;;8.60;6.32;;;;;;;16.43;81.44;101958.56;5028707;28;20507;-73
2022/06/11 01:59:47;;;;;;;8.98;5.32;;;;;;;16.37;81.46;101962.53;5029576;28;20108;-74
2022/06/11 02:02:42;;;;;;;10.43;6.35;;;;;;;16.37;81.59;101959.84;5008915;28;20032;-73
2022/06/11 02:05:40;;;;;;;13.50;5.82;;;;;;;16.26;81.50;101949.00;5026466;28;20317;-74
2022/06/11 02:08:18;;;;;;;7.55;5.85;;;;;;;16.36;81.35;101958.13;5026354;28;20495;-73
2022/06/11 02:10:47;;;;;;;8.52;5.32;;;;;;;16.31;81.36;101958.44;5030000;28;20117;-74
2022/06/11 02:13:35;;;;;;;7.18;4.95;;;;;;;16.35;81.02;101959.09;5027663;28;20104;-74
2022/06/11 02:16:21;;;;;;;7.97;5.28;;;;;;;16.24;81.34;101961.69;5011315;28;20105;-74
2022/06/11 02:18:50;;;;;;;7.00;5.30;;;;;;;16.18;82.02;101970.13;5029972;28;20555;-73
2022/06/11 02:21:20;;;;;;;11.20;5.70;;;;;;;15.97;81.92;101967.09;5029345;28;20072;-74
2022/06/11 02:23:51;;;;;;;7.35;5.20;;;;;;;16.05;82.37;101970.13;5028757;28;20061;-73
2022/06/11 02:26:29;;;;;;;7.20;5.60;;;;;;;16.12;82.38;101971.44;5029496;28;20041;-73
2022/06/11 02:28:56;;;;;;;8.68;5.63;;;;;;;16.03;82.05;101977.41;5029164;28;20623;-74
2022/06/11 02:31:29;;;;;;;9.38;5.50;;;;;;;15.99;82.43;101973.22;5031164;28;20044;-74
2022/06/11 02:33:55;;;;;;;13.02;5.70;;;;;;;15.86;82.36;101966.00;5031217;28;20043;-73
2022/06/11 02:36:27;;;;;;;6.60;5.10;;;;;;;16.02;81.99;101981.06;5014845;28;20022;-73
2022/06/11 02:38:56;;;;;;;7.75;5.05;;;;;;;15.99;82.17;101992.00;5031549;28;20112;-73
2022/06/11 02:41:29;;;;;;;8.82;5.20;;;;;;;16.04;82.06;101988.03;5015128;28;20116;-73
2022/06/11 02:43:58;;;;;;;9.63;4.95;;;;;;;15.96;81.75;101986.84;5012349;28;20083;-74
2022/06/11 02:46:43;;;;;;;5.80;4.82;;;;;;;15.96;81.55;101986.84;5031498;28;20099;-74
2022/06/11 02:49:15;;;;;;;8.02;5.18;;;;;;;15.97;82.03;101988.56;5033602;28;20209;-73
2022/06/11 02:51:41;;;;;;;8.68;4.85;;;;;;;15.94;81.54;101989.63;5014418;28;20021;-73
2022/06/11 02:54:06;;;;;;;9.98;5.60;;;;;;;15.76;81.80;101977.44;5013896;28;20056;-73
2022/06/11 02:56:32;;;;;;;8.60;5.25;;;;;;;15.82;82.02;101980.56;5011638;28;20064;-73
2022/06/11 02:58:58;;;;;;;7.88;5.28;;;;;;;15.87;81.98;101993.69;5012737;28;20021;-73
2022/06/11 03:01:25;;;;;;;7.13;5.07;;;;;;;15.84;81.90;101999.25;5030525;28;20029;-73
2022/06/11 03:03:51;;;;;;;8.55;5.28;;;;;;;15.79;82.13;101996.03;5031079;28;20028;-73
2022/06/11 03:06:18;;;;;;;8.40;5.05;;;;;;;15.78;82.36;101994.31;5031671;28;20378;-73
2022/06/11 03:08:44;;;;;;;9.88;5.70;;;;;;;15.76;82.55;101996.22;5032339;28;20025;-73
2022/06/11 03:11:09;;;;;;;6.28;4.45;;;;;;;15.77;82.31;101995.28;5033587;28;20043;-74
2022/06/11 03:13:35;;;;;;;7.65;5.25;;;;;;;15.71;82.53;102001.06;4994949;28;20026;-74
2022/06/11 03:16:00;;;;;;;8.68;5.38;;;;;;;15.71;82.96;101996.56;5032267;28;20469;-73
2022/06/11 03:18:27;;;;;;;8.38;5.22;;;;;;;15.75;83.21;102003.41;5032177;28;20468;-74
2022/06/11 03:20:55;;;;;;;6.65;5.07;;;;;;;15.76;83.75;102004.28;5031591;28;20048;-73
2022/06/11 03:23:26;;;;;;;7.75;4.82;;;;;;;15.72;83.80;102006.31;5029534;28;20032;-73
2022/06/11 03:25:51;;;;;;;7.65;5.28;;;;;;;15.88;83.13;102000.75;5031801;28;20029;-73
2022/06/11 03:28:22;;;;;;;11.00;5.70;;;;;;;15.90;83.66;102014.94;5012220;28;20396;-73
2022/06/11 03:30:48;;;;;;;7.88;5.53;;;;;;;15.89;83.21;102008.72;5011580;28;20022;-73
2022/06/11 03:33:14;;;;;;;8.25;5.20;;;;;;;15.92;83.32;102007.66;5014423;28;20052;-74
2022/06/11 03:35:41;;;;;;;9.70;5.38;;;;;;;15.97;83.41;102021.66;5033208;28;20025;-73
2022/06/11 03:38:07;;;;;;;7.28;4.95;;;;;;;15.99;83.63;102010.78;5009572;28;20482;-74
2022/06/11 03:40:36;;;;;;;7.38;5.32;;;;;;;16.05;83.27;102019.28;5012689;28;20021;-73
2022/06/11 03:43:03;;;;;;;7.07;5.10;;;;;;;16.11;82.82;102023.38;5014316;28;20037;-73
2022/06/11 03:45:31;;;;;;;7.15;4.95;;;;;;;16.16;83.06;102028.44;5032740;28;20473;-74
2022/06/11 03:47:57;;;;;;;9.40;4.88;;;;;;;16.12;83.45;102025.13;5030966;28;20051;-74
2022/06/11 03:50:32;;;;;;;8.15;4.80;;;;;;;16.13;83.32;102033.03;5029672;28;20152;-73
2022/06/11 03:53:01;;;;;;;6.85;4.97;;;;;;;16.19;82.35;102036.28;5031211;28;20436;-74
2022/06/11 03:55:28;;;;;;;5.18;4.57;;;;;;;16.17;82.94;102046.25;5032086;28;20029;-73
2022/06/11 03:57:54;;;;;;;6.03;4.55;;;;;;;16.20;82.28;102046.91;5030409;28;20025;-73
2022/06/11 04:03:15;;;;;;;8.30;5.10;;;;;;;16.19;82.71;102047.88;5030301;28;20392;-73
2022/06/11 04:05:44;;;;;;;10.10;5.20;;;;;;;16.17;83.36;102047.13;5030041;28;20037;-74
2022/06/11 04:08:11;;;;;;;5.75;4.88;;;;;;;16.23;82.56;102053.91;5031173;28;20022;-73
2022/06/11 04:10:37;;;;;;;6.97;4.85;;;;;;;16.25;82.99;102055.53;5029715;28;20144;-73
2022/06/11 04:13:03;;;;;;;10.18;5.57;;;;;;;16.20;83.06;102052.28;5012514;28;20408;-74
2022/06/11 04:15:29;;;;;;;7.47;4.60;;;;;;;16.22;83.01;102057.56;5031776;28;20026;-73
2022/06/11 04:17:54;;;;;;;6.63;4.82;;;;;;;16.27;83.17;102060.81;5031150;28;20025;-74
2022/06/11 04:20:20;;;;;;;8.85;5.60;;;;;;;16.23;82.51;102061.94;5013021;28;20100;-73
2022/06/11 04:22:45;;;;;;;6.88;5.10;;;;;;;16.18;83.42;102054.22;5013478;28;20503;-73
2022/06/11 04:25:14;;;;;;;6.78;4.63;;;;;;;16.18;83.27;102066.75;5030448;28;20060;-73
2022/06/11 04:27:40;;;;;;;7.03;4.97;;;;;;;16.21;83.09;102058.53;5031252;28;20060;-73
2022/06/11 04:30:07;;;;;;;7.45;4.47;;;;;;;16.23;83.69;102054.75;5029160;28;20036;-74
2022/06/11 04:32:32;;;;;;;5.57;4.45;;;;;;;16.23;82.99;102067.31;5029139;28;20034;-73
2022/06/11 04:34:58;;;;;;;6.45;5.00;;;;;;;16.28;83.07;102073.25;5013686;28;20037;-73
2022/06/11 04:37:26;;;;;;;6.88;4.20;;;;;;;16.34;83.19;102081.75;5029876;28;20029;-73
2022/06/11 04:39:56;;;;;;;11.13;5.72;;;;;;;16.24;82.68;102066.38;5028941;28;20044;-73
2022/06/11 04:42:28;;;;;;;7.38;4.65;;;;;;;16.37;82.30;102074.44;5030447;28;20147;-74
2022/06/11 04:44:54;;;;;;;8.32;4.20;;;;;;;16.41;82.74;102079.50;5030062;28;20029;-74
2022/06/11 04:47:24;;;;;;;7.68;4.28;;;;;;;16.42;82.52;102081.22;5010196;28;20080;-73
2022/06/11 04:49:52;;;;;;;6.78;4.75;;;;;;;16.38;82.66;102078.84;5013738;28;20022;-74
2022/06/11 04:52:18;;;;;;;6.00;4.32;;;;;;;16.39;82.28;102076.06;5028157;28;20025;-73
2022/06/11 04:54:44;;;;;;;6.43;4.47;;;;;;;16.44;82.27;102078.44;5013813;28;20071;-73
2022/06/11 04:57:10;;;;;;;6.93;4.63;;;;;;;16.44;82.05;102082.00;5013532;28;20481;-74
2022/06/11 04:59:35;;;;;;;10.13;5.13;;;;;;;16.42;81.97;102073.19;5031082;28;20465;-74
2022/06/11 05:02:04;;;;;;;7.45;4.75;;;;;;;16.55;81.65;102087.47;5012516;28;20448;-74
2022/06/11 05:04:30;;;;;;;8.43;4.28;;;;;;;16.49;81.89;102076.28;5026461;28;20373;-73
2022/06/11 05:06:58;;;;;;;6.90;5.03;;;;;;;16.60;81.42;102092.53;5028170;28;20056;-74
2022/06/11 05:09:24;;;;;;;8.18;4.95;;;;;;;16.59;81.81;102082.78;5012971;28;20404;-74
2022/06/11 05:11:54;;;;;;;8.05;5.00;;;;;;;16.62;82.57;102090.63;5029952;28;20132;-74
2022/06/11 05:14:24;;;;;;;7.03;4.82;;;;;;;16.68;80.39;102082.13;5028795;28;20033;-74
2022/06/11 05:16:50;;;;;;;5.95;4.55;;;;;;;16.67;80.15;102087.59;5028532;28;20029;-74
2022/06/11 05:19:20;;;;;;;10.48;5.30;;;;;;;16.66;79.70;102083.19;5030675;28;20021;-74
2022/06/11 05:21:46;;;;;;;10.40;4.63;;;;;;;16.66;79.05;102092.13;5029959;28;20050;-74
2022/06/11 05:24:13;;;;;;;8.68;4.78;;;;;;;16.62;80.35;102092.41;5029845;28;20036;-74
2022/06/11 05:26:44;;;;;;;8.52;4.63;;;;;;;16.61;77.82;102093.41;5028480;28;20026;-74
2022/06/11 05:29:16;;;;;;;10.05;4.82;;;;;;;16.61;77.66;102096.94;5027183;28;20061;-74
2022/06/11 05:31:42;;;;;;;6.47;4.18;;;;;;;16.64;76.74;102101.25;5027366;28;20032;-73
2022/06/11 05:34:07;;;;;;;9.45;4.85;;;;;;;16.68;76.34;102095.56;5029332;28;20037;-74
2022/06/11 05:36:33;;;;;;;12.75;4.85;;;;;;;16.70;73.99;102084.69;5028917;28;20022;-73
2022/06/11 05:38:59;;;;;;;11.55;4.18;;;;;;;16.78;73.91;102090.44;5026696;28;20637;-73
2022/06/11 05:41:24;;;;;;;12.10;4.18;;;;;;;16.78;71.54;102104.72;5027276;28;20040;-73
2022/06/11 05:43:50;;;;;;;9.40;3.95;;;;;;;16.77;72.90;102099.47;5010040;28;20033;-74
2022/06/11 05:46:20;;;;;;;12.50;4.50;;;;;;;16.85;72.05;102109.69;5011492;28;20026;-74
2022/06/11 05:49:00;;;;;;;10.82;4.30;;;;;;;16.88;71.04;102102.25;5030201;28;20034;-74
2022/06/11 05:51:30;;;;;;;12.18;3.90;;;;;;;17.07;71.25;102106.38;5026796;28;20037;-73
2022/06/11 05:54:02;;;;;;;12.73;4.00;;;;;;;17.29;71.19;102095.78;5011249;28;20029;-73
2022/06/11 05:56:28;;;;;;;12.02;3.92;;;;;;;17.44;69.68;102101.91;5027893;28;20500;-74
2022/06/11 05:59:01;;;;;;;12.95;4.25;;;;;;;17.49;70.50;102103.28;5010787;28;20094;-73
2022/06/11 06:01:35;;;;;;;10.80;4.15;;;;;;;17.54;68.19;102102.97;5010515;28;20029;-73
2022/06/11 06:04:01;;;;;;;15.68;4.32;;;;;;;17.56;67.29;102102.84;5008969;28;20017;-73
2022/06/11 06:06:26;;;;;;;15.63;4.88;;;;;;;17.68;66.26;102104.66;5012769;28;20385;-74
2022/06/11 06:08:52;;;;;;;13.77;4.10;;;;;;;17.68;67.08;102105.50;4996909;28;20412;-74
2022/06/11 06:11:19;;;;;;;16.65;4.38;;;;;;;17.82;65.73;102107.22;5014058;28;20036;-74
2022/06/11 06:13:48;;;;;;;15.35;4.63;;;;;;;17.94;64.86;102100.06;5031264;28;20120;-73
2022/06/11 06:16:15;;;;;;;13.57;4.43;;;;;;;17.83;63.09;102110.78;4998063;28;20030;-74
2022/06/11 06:18:41;;;;;;;15.82;4.05;;;;;;;17.82;64.84;102109.91;5031941;28;20025;-74
2022/06/11 06:21:07;;;;;;;11.57;3.70;;;;;;;17.74;64.55;102106.91;4974111;28;1126017;-74
2022/06/11 06:23:34;;;;;;;13.05;4.53;;;;;;;17.75;63.81;102105.91;4981178;28;20026;-74
2022/06/11 06:25:59;;;;;;;12.40;4.00;;;;;;;17.88;64.44;102122.94;5033946;28;20099;-74
2022/06/11 06:28:25;;;;;;;16.55;3.80;;;;;;;18.04;63.88;102124.47;5032110;28;20489;-73
2022/06/11 06:30:51;;;;;;;13.93;4.32;;;;;;;18.07;63.87;102126.94;4998234;28;20033;-74
2022/06/11 06:33:16;;;;;;;14.55;3.85;;;;;;;18.17;64.42;102119.88;5030913;28;20026;-73
2022/06/11 06:35:42;;;;;;;12.23;4.28;;;;;;;18.26;63.95;102127.28;5015347;28;20033;-73
2022/06/11 06:38:07;;;;;;;15.70;4.57;;;;;;;18.26;63.72;102123.72;5031898;28;20027;-74
2022/06/11 06:40:38;;;;;;;14.02;4.03;;;;;;;18.22;64.63;102133.88;5033058;28;20076;-73
2022/06/11 06:43:03;;;;;;;14.30;3.85;;;;;;;18.16;64.11;102135.19;5032947;28;20029;-73
2022/06/11 06:45:29;;;;;;;19.20;4.55;;;;;;;18.05;64.01;102126.19;5032519;28;20044;-74
2022/06/11 06:47:55;;;;;;;21.30;4.55;;;;;;;17.97;64.08;102144.72;5032715;28;20040;-73
2022/06/11 06:50:21;;;;;;;21.25;4.63;;;;;;;17.90;64.01;102139.81;5011989;28;20116;-74
2022/06/11 06:52:46;;;;;;;21.30;5.80;;;;;;;17.90;63.74;102145.19;5031611;28;20444;-73
2022/06/11 06:55:13;;;;;;;19.02;4.93;;;;;;;17.87;64.14;102149.94;5013607;28;20037;-73
2022/06/11 06:57:39;;;;;;;24.30;5.32;;;;;;;17.81;65.29;102151.25;5032949;28;20393;-73
2022/06/11 07:00:07;;;;;;;19.50;5.00;;;;;;;17.79;64.10;102137.03;5011947;28;20108;-74
2022/06/11 07:02:32;;;;;;;18.33;4.70;;;;;;;17.81;63.66;102129.72;5033001;28;20052;-73
2022/06/11 07:04:59;;;;;;;24.55;5.43;;;;;;;17.84;63.72;102136.72;4996782;28;20474;-73
2022/06/11 07:07:25;;;;;;;20.08;5.18;;;;;;;17.86;63.52;102134.78;5013569;28;20034;-73
2022/06/11 07:09:56;;;;;;;15.70;4.95;;;;;;;18.19;63.54;102123.34;5033273;28;20029;-73
2022/06/11 07:12:22;;;;;;;27.17;5.93;;;;;;;18.36;62.93;102125.63;5013332;28;20469;-73
2022/06/11 07:14:48;;;;;;;20.85;4.63;;;;;;;18.42;63.53;102131.53;5011198;28;20039;-73
2022/06/11 07:17:18;;;;;;;19.02;4.55;;;;;;;18.29;62.09;102118.09;5031081;28;20029;-73
2022/06/11 07:20:10;;;;;;;20.00;5.25;;;;;;;18.46;63.01;102122.22;5014253;28;20044;-73
2022/06/11 07:22:45;;;;;;;19.02;5.05;;;;;;;18.75;63.11;102128.97;4989785;28;20038;-73
2022/06/11 07:25:11;;;;;;;19.27;5.10;;;;;;;19.07;61.65;102133.69;4992749;28;20034;-73
2022/06/11 07:27:45;;;;;;;22.08;5.20;;;;;;;19.23;61.72;102131.47;4988309;28;20493;-74
2022/06/11 07:30:13;;;;;;;16.67;4.85;;;;;;;19.18;60.77;102138.25;4992194;28;20462;-73
2022/06/11 07:32:40;;;;;;;19.85;4.93;;;;;;;19.13;61.15;102138.59;4992127;28;20045;-73
2022/06/11 07:35:08;;;;;;;21.33;5.53;;;;;;;19.15;62.50;102139.34;4992781;28;20026;-73
2022/06/11 07:37:35;;;;;;;18.23;4.88;;;;;;;19.08;61.25;102140.78;4992225;28;20760;-73
2022/06/11 07:40:02;;;;;;;18.77;5.10;;;;;;;19.06;61.44;102142.78;4992001;28;20446;-73
2022/06/11 07:42:28;;;;;;;21.83;6.47;;;;;;;19.22;61.41;102147.81;4989832;28;20034;-74
2022/06/11 07:44:54;;;;;;;17.33;4.72;;;;;;;19.28;60.42;102147.31;4971171;28;20030;-74
2022/06/11 07:47:53;;;;;;;17.52;5.38;;;;;;;19.31;61.17;102141.69;4992019;28;20658;-73
2022/06/11 07:50:07;;;;;;;17.17;4.50;;;;;;;19.34;62.02;102137.88;4987986;28;20046;-73
2022/06/11 07:52:32;;;;;;;22.00;5.95;;;;;;;19.39;60.22;102141.94;4990919;28;20053;-73
2022/06/11 07:54:58;;;;;;;19.80;4.93;;;;;;;19.35;60.81;102140.44;4991872;28;20104;-73
2022/06/11 07:57:24;;;;;;;24.80;5.38;;;;;;;19.33;60.60;102128.06;4991855;28;20113;-73
2022/06/11 07:59:49;;;;;;;14.82;4.45;;;;;;;19.27;61.66;102135.66;4993241;28;20105;-73
2022/06/11 08:02:15;;;;;;;22.13;5.22;;;;;;;19.51;59.93;102142.78;4991073;28;20035;-73
2022/06/11 08:04:41;;;;;;;28.35;6.03;;;;;;;19.47;60.66;102139.47;4975571;28;20043;-74
2022/06/11 08:07:06;;;;;;;18.80;5.05;;;;;;;19.55;60.50;102157.75;4975455;28;20071;-73
2022/06/11 08:09:32;;;;;;;17.88;5.47;;;;;;;19.76;59.74;102154.31;4975609;28;20084;-73
2022/06/11 08:11:57;;;;;;;18.38;4.68;;;;;;;19.98;59.36;102153.44;4991763;28;20026;-74
2022/06/11 08:14:22;;;;;;;30.13;5.85;;;;;;;20.08;59.17;102160.63;4974467;28;20577;-73
2022/06/11 08:16:48;;;;;;;23.63;5.53;;;;;;;20.29;57.97;102159.84;4975921;28;20059;-74
2022/06/11 08:19:14;;;;;;;21.23;5.88;;;;;;;20.35;56.22;102153.94;4991826;28;20049;-73
2022/06/11 08:21:43;;;;;;;18.42;4.75;;;;;;;20.25;58.62;102151.16;5017699;28;20045;-73
2022/06/11 08:24:11;;;;;;;20.92;5.30;;;;;;;20.34;58.78;102165.72;5011369;28;20041;-73
2022/06/11 08:26:37;;;;;;;20.45;5.80;;;;;;;20.35;57.91;102172.84;5013600;28;20037;-73
2022/06/11 08:29:02;;;;;;;20.20;5.65;;;;;;;19.96;57.58;102167.91;5013786;28;20036;-74
2022/06/11 08:31:30;;;;;;;17.70;4.97;;;;;;;19.79;58.11;102165.72;5031628;28;20382;-73
2022/06/11 08:33:56;;;;;;;19.85;5.10;;;;;;;19.72;59.80;102172.63;4997635;28;20037;-73
2022/06/11 08:36:23;;;;;;;18.60;5.28;;;;;;;19.88;58.64;102167.69;5031190;28;20040;-74
2022/06/11 08:38:48;;;;;;;20.27;6.03;;;;;;;20.01;58.26;102137.84;5011775;28;20111;-74
2022/06/11 08:41:21;;;;;;;17.27;5.38;;;;;;;20.57;58.10;102159.28;4997887;28;20087;-74
2022/06/11 08:44:22;;;;;;;29.60;5.13;;;;;;;21.08;59.37;102168.47;5031503;28;20392;-73
2022/06/11 08:46:50;;;;;;;18.80;5.28;;;;;;;21.09;54.07;102170.19;4932025;29;20040;-74
2022/06/11 08:49:42;;;;;;;22.35;4.88;;;;;;;21.18;54.37;102179.34;4994188;28;20413;-74
2022/06/11 08:52:13;;;;;;;21.90;5.03;;;;;;;21.23;53.83;102175.25;5031463;28;20274;-74
2022/06/11 08:54:43;;;;;;;23.25;4.55;;;;;;;21.18;53.51;102169.41;5013123;28;20176;-74
2022/06/11 08:57:27;;;;;;;23.63;5.60;;;;;;;21.24;55.05;102171.56;5032693;28;20662;-74
2022/06/11 09:00:17;;;;;;;22.08;4.90;;;;;;;21.19;54.89;102171.09;5032049;28;20427;-74
2022/06/11 09:02:51;;;;;;;21.88;5.30;;;;;;;21.05;53.76;102172.28;5032513;28;20104;-74
2022/06/11 09:05:51;;;;;;;22.17;5.63;;;;;;;20.99;54.04;102170.13;5032661;28;20108;-74
2022/06/11 09:08:38;;;;;;;22.10;5.07;;;;;;;21.05;53.56;102179.56;5031670;28;20412;-74
2022/06/11 09:11:20;;;;;;;19.88;4.88;;;;;;;21.31;54.18;102172.72;5031216;28;20029;-74
2022/06/11 09:13:56;;;;;;;21.60;5.05;;;;;;;21.23;53.47;102160.84;5030568;28;20021;-74
2022/06/11 09:17:01;;;;;;;16.95;4.78;;;;;;;21.29;54.27;102166.59;5031221;28;20056;-74
2022/06/11 09:19:46;;;;;;;19.90;4.82;;;;;;;21.30;54.32;102168.31;5031279;28;20041;-74
2022/06/11 09:22:41;;;;;;;21.60;5.82;;;;;;;21.10;54.35;102178.16;5030562;28;20060;-73
2022/06/11 09:25:19;;;;;;;20.20;5.72;;;;;;;20.87;52.48;102168.47;5027523;28;20502;-74
2022/06/11 09:28:00;;;;;;;27.20;5.13;;;;;;;20.84;53.85;102161.47;5030646;28;20490;-73
2022/06/11 09:30:37;;;;;;;19.08;4.95;;;;;;;20.88;52.82;102170.19;5030963;28;20032;-74
2022/06/11 09:33:34;;;;;;;23.13;5.53;;;;;;;20.83;54.24;102173.28;5030890;28;20147;-74
2022/06/11 09:36:02;;;;;;;19.17;4.63;;;;;;;20.71;53.31;102171.63;5009743;28;20132;-74
2022/06/11 09:38:33;;;;;;;16.33;5.57;;;;;;;20.83;51.57;102169.72;5010610;28;20432;-74
2022/06/11 09:41:39;;;;;;;22.77;5.07;;;;;;;21.23;54.49;102172.53;5031094;28;20275;-74
2022/06/11 09:44:55;;;;;;;19.17;5.55;;;;;;;21.62;53.06;102169.19;5017301;28;20041;-74
2022/06/11 09:47:30;;;;;;;22.30;5.68;;;;;;;22.03;51.72;102173.63;4950427;29;20039;-74
2022/06/11 09:50:21;;;;;;;20.80;5.07;;;;;;;22.28;53.83;102171.41;4950640;29;20039;-74
2022/06/11 09:52:50;;;;;;;16.52;5.05;;;;;;;22.33;51.09;102169.97;5007436;28;20033;-74
2022/06/11 09:55:26;;;;;;;19.77;5.65;;;;;;;22.36;50.28;102164.28;5011451;28;20033;-74
2022/06/11 09:58:14;;;;;;;23.25;5.47;;;;;;;22.35;51.26;102162.53;5010387;28;20021;-74
2022/06/11 10:00:46;;;;;;;20.05;5.68;;;;;;;22.24;51.48;102168.13;5030338;28;20488;-73
2022/06/11 10:03:35;;;;;;;20.05;5.18;;;;;;;22.40;50.50;102165.69;5010460;28;20067;-74
2022/06/11 10:06:09;;;;;;;17.77;4.30;;;;;;;22.64;47.70;102162.53;5010949;28;20030;-74
2022/06/11 10:08:35;;;;;;;16.95;4.38;;;;;;;22.76;45.97;102163.25;5030789;28;20022;-74
2022/06/11 10:11:04;;;;;;;16.35;3.60;;;;;;;22.61;46.02;102164.69;5030799;28;20029;-74
2022/06/11 10:13:39;;;;;;;;;;;;;;;22.88;48.23;102167.53;5030697;28;20021;-74
2022/06/11 10:16:19;;;;;;;16.23;3.92;;;;;;;22.67;46.84;102161.41;5029883;28;19942;-74
2022/06/11 10:18:49;;;;;;;20.30;4.13;;;;;;;22.87;47.34;102163.09;5030312;28;20496;-74
2022/06/11 10:21:19;;;;;;;18.55;4.70;;;;;;;23.16;46.85;102173.06;5030426;28;20116;-74
2022/06/11 10:23:59;;;;;;;17.35;4.65;;;;;;;23.15;46.62;102162.34;5029951;28;20041;-74
2022/06/11 10:26:36;;;;;;;16.75;4.22;;;;;;;23.22;46.60;102163.50;5029391;28;20135;-74
2022/06/11 10:29:14;;;;;;;20.20;4.57;;;;;;;23.38;46.15;102171.00;5030007;28;20080;-74
2022/06/11 10:32:06;;;;;;;20.58;4.18;;;;;;;23.55;46.43;102179.22;5029902;28;20067;-74
2022/06/11 10:34:31;;;;;;;17.40;4.15;;;;;;;23.62;43.94;102182.22;5012707;28;20064;-74
2022/06/11 10:37:12;;;;;;;15.25;3.60;;;;;;;23.68;41.89;102176.19;4994208;28;20073;-74
2022/06/11 10:40:03;;;;;;;11.30;3.28;;;;;;;23.60;42.62;102184.22;5030461;28;20075;-74
2022/06/11 10:42:44;;;;;;;17.77;3.70;;;;;;;23.68;42.48;102187.06;5000146;28;20128;-74
2022/06/11 10:45:14;;;;;;;15.75;3.88;;;;;;;23.79;43.95;102164.28;5030392;28;20025;-74
2022/06/11 10:47:47;;;;;;;18.55;4.05;;;;;;;23.85;43.33;102173.69;5010059;28;20093;-74
2022/06/11 10:50:16;;;;;;;17.45;4.13;;;;;;;24.04;41.65;102173.59;5032229;28;20075;-74
2022/06/11 10:53:04;;;;;;;16.23;4.55;;;;;;;24.20;45.12;102172.88;5015572;28;20135;-74
2022/06/11 10:55:44;;;;;;;13.55;3.58;;;;;;;24.14;42.49;102157.19;5033539;28;20040;-74
2022/06/11 10:58:28;;;;;;;14.18;3.67;;;;;;;24.33;42.77;102159.78;5014244;28;20034;-74
2022/06/11 11:01:01;;;;;;;15.68;3.78;;;;;;;24.26;42.00;102167.69;5033522;28;20021;-74
2022/06/11 11:03:50;;;;;;;13.68;3.42;;;;;;;24.47;42.54;102167.44;5014014;28;20021;-74
2022/06/11 11:06:26;;;;;;;14.35;4.30;;;;;;;24.66;43.68;102171.84;5032141;28;20028;-74
2022/06/11 11:08:58;;;;;;;16.02;4.07;;;;;;;24.52;40.80;102169.69;5015327;28;20029;-74
2022/06/11 11:11:25;;;;;;;15.95;3.63;;;;;;;24.67;41.80;102167.25;5033061;28;20025;-73
2022/06/11 11:14:04;;;;;;;21.05;4.85;;;;;;;24.97;42.64;102167.81;5033060;28;20029;-74
2022/06/11 11:16:36;;;;;;;13.52;4.32;;;;;;;24.97;42.34;102156.94;5012977;28;20022;-74
2022/06/11 11:19:14;;;;;;;19.63;4.68;;;;;;;25.24;44.18;102153.25;5032672;28;20032;-74
2022/06/11 11:21:55;;;;;;;21.00;4.50;;;;;;;25.49;43.90;102146.03;5032814;28;20037;-74
2022/06/11 11:24:32;;;;;;;15.82;4.45;;;;;;;25.38;42.34;102158.94;5033294;28;20044;-73
2022/06/11 11:27:18;;;;;;;13.23;4.53;;;;;;;25.68;42.91;102150.38;5013383;28;20492;-74
2022/06/11 11:29:53;;;;;;;14.20;4.22;;;;;;;25.49;43.26;102154.22;5033211;28;20507;-74
2022/06/11 11:32:33;;;;;;;17.15;4.53;;;;;;;25.51;42.85;102161.22;5028093;28;20035;-74
2022/06/11 11:35:16;;;;;;;17.70;4.53;;;;;;;25.68;42.73;102147.66;5033238;28;20338;-74
2022/06/11 11:37:42;;;;;;;13.55;4.47;;;;;;;25.71;41.71;102144.63;5033088;28;20017;-74
2022/06/11 11:40:29;;;;;;;16.25;4.53;;;;;;;26.10;41.60;102144.94;5033375;28;20396;-74
2022/06/11 11:42:57;;;;;;;19.92;4.72;;;;;;;26.12;41.93;102140.16;5030335;28;20428;-74
2022/06/11 11:45:25;;;;;;;16.55;4.32;;;;;;;26.15;40.43;102147.13;5032917;28;20025;-74
2022/06/11 11:47:59;;;;;;;19.58;4.50;;;;;;;25.86;39.42;102148.44;5013645;28;20060;-74